MDT,Max TemperatureF,Mean TemperatureF,Min TemperatureF,Max Dew PointF,MeanDew PointF,Min DewpointF,Max Humidity, Mean Humidity, Min Humidity, Max Sea Level PressureIn, Mean Sea Level PressureIn, Min Sea Level PressureIn, Max VisibilityMiles, Mean VisibilityMiles, Min VisibilityMiles, Max Wind SpeedMPH, Mean Wind SpeedMPH, Max Gust SpeedMPH,PrecipitationIn, CloudCover, Events, WindDirDegrees
2014-3-1,-13,-17,-21,-20,-23,-27,81,69,57,30.61,30.42,30.19,10,6,2,13,6,15,T,7,Snow,94
2014-3-2,-6,-10,-15,-11,-17,-20,77,71,65,30.50,30.21,29.91,10,5,0,16,10,19,T,8,Snow,133
2014-3-3,7,1,-6,0,-6,-11,91,81,71,30.12,29.97,29.71,10,9,4,12,6,13,T,5,,119
2014-3-4,39,18,-4,20,4,-5,95,79,63,30.04,29.90,29.73,10,8,1,22,6,27,0.00,4,,104
2014-3-5,40,21,2,30,11,0,92,83,74,29.95,29.82,29.59,10,10,9,15,7,18,0.00,1,,95
2014-3-6,8,6,4,4,0,-1,88,79,69,30.16,29.89,29.60,10,8,3,22,12,25,T,8,Snow,2
2014-3-7,42,22,1,30,13,-3,95,77,58,30.20,30.15,30.11,10,10,9,25,10,31,0.00,0,,204
2014-3-8,47,41,34,32,26,22,75,56,37,30.15,29.96,29.73,10,10,10,43,22,49,0.00,0,,236
2014-3-9,53,45,36,39,36,32,82,68,54,29.84,29.72,29.61,10,10,10,51,26,61,0.00,0,,258
2014-3-10,44,36,28,35,31,27,96,75,53,30.12,29.88,29.78,10,8,1,21,10,25,0.05,6,Snow,324
2014-3-11,46,33,20,31,24,18,92,67,41,30.40,30.30,30.15,10,10,10,28,15,34,0.00,0,,264
2014-3-12,56,44,31,27,24,20,78,53,28,30.27,30.13,29.91,10,10,10,32,21,38,0.00,0,,254
2014-3-13,48,42,37,27,23,17,62,48,40,29.96,29.89,29.82,10,10,10,30,19,38,0.00,1,,280
2014-3-14,47,40,33,33,27,20,100,72,43,29.92,29.80,29.71,10,9,3,35,22,41,0.09,4,Snow,258
2014-3-15,48,40,31,34,29,18,96,66,36,30.24,30.07,29.87,10,8,2,41,21,52,0.03,5,Snow,277
2014-3-16,55,48,40,33,28,17,70,52,33,30.00,29.82,29.60,10,10,10,54,29,65,0.00,1,,256
2014-3-17,41,33,25,33,29,22,96,78,60,30.00,29.62,29.42,10,6,0,32,17,38,0.06,7,Fog-Snow,327
2014-3-18,43,34,24,25,20,15,92,64,36,30.09,30.05,30.01,10,10,10,25,13,30,0.00,4,,272
2014-3-19,43,36,29,24,20,16,78,56,34,30.00,29.91,29.79,10,10,10,36,20,43,0.00,1,,253
2014-3-20,37,30,19,25,21,15,84,62,40,30.29,29.93,29.73,10,10,3,33,24,46,T,6,Snow,298
2014-3-21,18,12,5,10,6,3,88,75,61,30.59,30.48,30.26,10,8,2,23,10,28,T,8,Snow,20
2014-3-22,25,15,5,14,8,2,88,74,60,30.60,30.46,30.23,10,10,10,15,9,22,T,7,,136
2014-3-23,23,18,12,14,12,10,88,78,68,30.49,30.32,30.16,10,5,1,21,10,23,0.04,8,Snow,2
2014-3-24,23,16,9,12,10,5,88,68,47,30.58,30.45,30.32,10,6,0,17,8,21,0.01,6,Fog-Snow,342
2014-3-25,33,24,15,23,15,9,92,77,62,30.34,29.94,29.66,10,10,10,18,9,22,0.00,1,,130
2014-3-26,29,24,19,23,21,17,96,86,75,29.76,29.62,29.48,10,6,0,16,10,20,0.00,7,Fog,7
2014-3-27,25,22,18,21,17,14,92,83,74,30.02,29.80,29.64,10,8,2,18,9,21,T,8,Snow,13
2014-3-28,47,29,10,30,20,8,100,69,38,30.06,29.91,29.70,10,8,2,22,7,29,T,6,Snow,153
2014-3-29,51,38,25,32,28,23,92,66,39,29.78,29.69,29.64,10,10,9,41,20,51,0.00,0,,241
2014-3-30,34,28,21,26,23,19,100,82,64,30.14,29.87,29.70,10,5,0,20,10,22,T,7,Fog-Snow,29
2014-3-31,33,26,18,27,23,15,100,88,75,30.16,30.03,29.87,10,7,0,15,8,18,0.00,7,Fog-Snow,112